Terminal Aerodrome Forecast
Issued by NWS Cleveland, OH

Home | Current Version | Previous Version | Graphics & Text | Print | Product List | Glossary On
Versions: 1 2 3 4 5 6 7 8 9 10 11 12 13 14 15 16 17 18 19 20 21 22 23 24 25 26
000
FTUS41 KCLE 260500
TAFYNG
TAF
KYNG 260520Z 2606/2706 32008KT P6SM OVC025
      TEMPO 2607/2611 SCT025 OVC200
     FM261500 06003KT P6SM SCT025 OVC200=

USA.gov is the U.S. government's official web portal to all federal, state and local government web resources and services.